sensor_id;sensor_type;location;lat;lon;timestamp;P1;durP1;ratioP1;P2;durP2;ratioP2
6269;SDS011;3168;51.684;6.954;2023-01-26T00:00:23;16.57;;;9.23;;
6269;SDS011;3168;51.684;6.954;2023-01-26T00:02:49;11.83;;;7.70;;
6269;SDS011;3168;51.684;6.954;2023-01-26T00:05:15;8.27;;;5.83;;
6269;SDS011;3168;51.684;6.954;2023-01-26T00:07:41;25.70;;;6.53;;
6269;SDS011;3168;51.684;6.954;2023-01-26T00:10:07;20.37;;;7.57;;
6269;SDS011;3168;51.684;6.954;2023-01-26T00:12:33;22.87;;;7.57;;
6269;SDS011;3168;51.684;6.954;2023-01-26T00:14:59;21.53;;;10.17;;
6269;SDS011;3168;51.684;6.954;2023-01-26T00:17:25;45.47;;;10.07;;
6269;SDS011;3168;51.684;6.954;2023-01-26T00:19:52;14.93;;;9.00;;
6269;SDS011;3168;51.684;6.954;2023-01-26T00:22:17;21.20;;;7.00;;
6269;SDS011;3168;51.684;6.954;2023-01-26T00:24:43;17.97;;;9.37;;
6269;SDS011;3168;51.684;6.954;2023-01-26T00:27:09;11.70;;;7.20;;
6269;SDS011;3168;51.684;6.954;2023-01-26T00:29:35;23.97;;;5.57;;
6269;SDS011;3168;51.684;6.954;2023-01-26T00:32:00;23.70;;;10.30;;
6269;SDS011;3168;51.684;6.954;2023-01-26T00:34:26;23.10;;;10.60;;
6269;SDS011;3168;51.684;6.954;2023-01-26T00:36:52;10.50;;;5.03;;
6269;SDS011;3168;51.684;6.954;2023-01-26T00:39:18;21.70;;;7.63;;
6269;SDS011;3168;51.684;6.954;2023-01-26T00:41:44;35.03;;;8.77;;
6269;SDS011;3168;51.684;6.954;2023-01-26T00:44:16;15.48;;;7.95;;
6269;SDS011;3168;51.684;6.954;2023-01-26T00:46:41;13.47;;;5.40;;
6269;SDS011;3168;51.684;6.954;2023-01-26T00:49:07;22.47;;;9.33;;
6269;SDS011;3168;51.684;6.954;2023-01-26T00:51:33;10.77;;;6.67;;
6269;SDS011;3168;51.684;6.954;2023-01-26T00:53:59;25.10;;;9.37;;
6269;SDS011;3168;51.684;6.954;2023-01-26T00:56:25;20.50;;;6.70;;
6269;SDS011;3168;51.684;6.954;2023-01-26T00:58:50;18.13;;;8.90;;
6269;SDS011;3168;51.684;6.954;2023-01-26T01:01:16;14.90;;;8.67;;
6269;SDS011;3168;51.684;6.954;2023-01-26T01:03:42;27.67;;;10.00;;
6269;SDS011;3168;51.684;6.954;2023-01-26T01:06:08;33.53;;;8.50;;
6269;SDS011;3168;51.684;6.954;2023-01-26T01:08:34;32.43;;;10.00;;
6269;SDS011;3168;51.684;6.954;2023-01-26T01:11:02;12.60;;;7.10;;
6269;SDS011;3168;51.684;6.954;2023-01-26T01:13:28;13.70;;;7.00;;
6269;SDS011;3168;51.684;6.954;2023-01-26T01:15:54;14.27;;;7.70;;
6269;SDS011;3168;51.684;6.954;2023-01-26T01:18:20;19.33;;;9.60;;
6269;SDS011;3168;51.684;6.954;2023-01-26T01:20:45;17.37;;;6.30;;
6269;SDS011;3168;51.684;6.954;2023-01-26T01:23:11;12.87;;;5.67;;
6269;SDS011;3168;51.684;6.954;2023-01-26T01:25:37;13.93;;;6.80;;
6269;SDS011;3168;51.684;6.954;2023-01-26T01:28:03;36.90;;;8.90;;
6269;SDS011;3168;51.684;6.954;2023-01-26T01:30:29;14.77;;;6.17;;
6269;SDS011;3168;51.684;6.954;2023-01-26T01:32:55;19.60;;;7.70;;
6269;SDS011;3168;51.684;6.954;2023-01-26T01:35:20;54.70;;;10.37;;
6269;SDS011;3168;51.684;6.954;2023-01-26T01:37:46;8.70;;;6.43;;
6269;SDS011;3168;51.684;6.954;2023-01-26T01:40:12;12.37;;;6.73;;
6269;SDS011;3168;51.684;6.954;2023-01-26T01:42:44;24.30;;;11.03;;
6269;SDS011;3168;51.684;6.954;2023-01-26T01:47:42;27.53;;;11.10;;
6269;SDS011;3168;51.684;6.954;2023-01-26T01:50:08;14.47;;;4.90;;
6269;SDS011;3168;51.684;6.954;2023-01-26T01:52:34;28.43;;;9.83;;
6269;SDS011;3168;51.684;6.954;2023-01-26T01:55:02;26.90;;;7.10;;
6269;SDS011;3168;51.684;6.954;2023-01-26T01:57:28;14.20;;;9.03;;
6269;SDS011;3168;51.684;6.954;2023-01-26T01:59:55;37.27;;;9.23;;
6269;SDS011;3168;51.684;6.954;2023-01-26T02:02:20;28.50;;;7.40;;
6269;SDS011;3168;51.684;6.954;2023-01-26T02:04:45;17.43;;;6.20;;
6269;SDS011;3168;51.684;6.954;2023-01-26T02:07:12;26.70;;;10.53;;
6269;SDS011;3168;51.684;6.954;2023-01-26T02:09:38;12.80;;;8.47;;
6269;SDS011;3168;51.684;6.954;2023-01-26T02:12:10;24.17;;;8.00;;
6269;SDS011;3168;51.684;6.954;2023-01-26T02:14:35;19.23;;;7.37;;
6269;SDS011;3168;51.684;6.954;2023-01-26T02:17:01;18.17;;;8.07;;
6269;SDS011;3168;51.684;6.954;2023-01-26T02:22:13;16.90;;;7.40;;
6269;SDS011;3168;51.684;6.954;2023-01-26T02:24:36;11.60;;;4.70;;
6269;SDS011;3168;51.684;6.954;2023-01-26T02:27:02;9.63;;;5.73;;
6269;SDS011;3168;51.684;6.954;2023-01-26T02:29:28;19.30;;;6.57;;
6269;SDS011;3168;51.684;6.954;2023-01-26T02:31:54;27.13;;;8.90;;
6269;SDS011;3168;51.684;6.954;2023-01-26T02:34:20;15.33;;;7.20;;
6269;SDS011;3168;51.684;6.954;2023-01-26T02:36:55;8.57;;;7.63;;
6269;SDS011;3168;51.684;6.954;2023-01-26T02:39:19;20.80;;;7.00;;
6269;SDS011;3168;51.684;6.954;2023-01-26T02:41:45;11.93;;;9.00;;
6269;SDS011;3168;51.684;6.954;2023-01-26T02:44:17;13.00;;;8.30;;
6269;SDS011;3168;51.684;6.954;2023-01-26T02:46:43;19.60;;;7.33;;
6269;SDS011;3168;51.684;6.954;2023-01-26T02:49:08;15.30;;;7.07;;
6269;SDS011;3168;51.684;6.954;2023-01-26T02:51:40;24.13;;;6.63;;
6269;SDS011;3168;51.684;6.954;2023-01-26T02:54:06;45.63;;;10.57;;
6269;SDS011;3168;51.684;6.954;2023-01-26T02:56:32;21.03;;;6.10;;
6269;SDS011;3168;51.684;6.954;2023-01-26T02:58:58;13.43;;;7.47;;
6269;SDS011;3168;51.684;6.954;2023-01-26T03:01:23;9.13;;;5.77;;
6269;SDS011;3168;51.684;6.954;2023-01-26T03:03:49;9.10;;;6.40;;
6269;SDS011;3168;51.684;6.954;2023-01-26T03:06:15;11.10;;;7.03;;
6269;SDS011;3168;51.684;6.954;2023-01-26T03:08:41;13.17;;;6.80;;
6269;SDS011;3168;51.684;6.954;2023-01-26T03:11:07;14.63;;;7.37;;
6269;SDS011;3168;51.684;6.954;2023-01-26T03:13:33;10.80;;;5.80;;
6269;SDS011;3168;51.684;6.954;2023-01-26T03:15:58;16.37;;;8.83;;
6269;SDS011;3168;51.684;6.954;2023-01-26T03:18:24;32.43;;;8.27;;
6269;SDS011;3168;51.684;6.954;2023-01-26T03:20:58;16.77;;;6.00;;
6269;SDS011;3168;51.684;6.954;2023-01-26T03:23:29;20.10;;;7.90;;
6269;SDS011;3168;51.684;6.954;2023-01-26T03:26:01;16.60;;;6.67;;
6269;SDS011;3168;51.684;6.954;2023-01-26T03:28:33;30.23;;;7.23;;
6269;SDS011;3168;51.684;6.954;2023-01-26T03:30:59;36.67;;;8.50;;
6269;SDS011;3168;51.684;6.954;2023-01-26T03:33:27;19.83;;;8.57;;
6269;SDS011;3168;51.684;6.954;2023-01-26T03:35:53;16.43;;;6.03;;
6269;SDS011;3168;51.684;6.954;2023-01-26T03:38:18;14.03;;;5.90;;
6269;SDS011;3168;51.684;6.954;2023-01-26T03:40:44;14.90;;;5.47;;
6269;SDS011;3168;51.684;6.954;2023-01-26T03:43:16;20.17;;;6.23;;
6269;SDS011;3168;51.684;6.954;2023-01-26T03:45:48;10.23;;;4.80;;
6269;SDS011;3168;51.684;6.954;2023-01-26T03:48:19;15.43;;;6.13;;
6269;SDS011;3168;51.684;6.954;2023-01-26T03:50:51;27.27;;;6.57;;
6269;SDS011;3168;51.684;6.954;2023-01-26T03:53:23;17.13;;;4.63;;
6269;SDS011;3168;51.684;6.954;2023-01-26T03:55:55;22.17;;;7.20;;
6269;SDS011;3168;51.684;6.954;2023-01-26T03:58:27;12.70;;;4.23;;
6269;SDS011;3168;51.684;6.954;2023-01-26T04:00:53;8.73;;;6.80;;
6269;SDS011;3168;51.684;6.954;2023-01-26T04:03:18;8.40;;;5.30;;
6269;SDS011;3168;51.684;6.954;2023-01-26T04:05:50;12.00;;;6.30;;
6269;SDS011;3168;51.684;6.954;2023-01-26T04:08:22;8.60;;;6.87;;
6269;SDS011;3168;51.684;6.954;2023-01-26T04:10:49;6.83;;;4.73;;
6269;SDS011;3168;51.684;6.954;2023-01-26T04:13:14;9.13;;;3.97;;
6269;SDS011;3168;51.684;6.954;2023-01-26T04:15:47;24.23;;;7.97;;
6269;SDS011;3168;51.684;6.954;2023-01-26T04:18:19;17.47;;;6.87;;
6269;SDS011;3168;51.684;6.954;2023-01-26T04:20:50;12.40;;;5.83;;
6269;SDS011;3168;51.684;6.954;2023-01-26T04:23:22;18.67;;;4.73;;
6269;SDS011;3168;51.684;6.954;2023-01-26T04:25:48;13.60;;;5.73;;
6269;SDS011;3168;51.684;6.954;2023-01-26T04:28:14;16.37;;;5.40;;
6269;SDS011;3168;51.684;6.954;2023-01-26T04:30:40;5.30;;;4.80;;
6269;SDS011;3168;51.684;6.954;2023-01-26T04:33:05;3.57;;;3.30;;
6269;SDS011;3168;51.684;6.954;2023-01-26T04:35:32;9.13;;;5.63;;
6269;SDS011;3168;51.684;6.954;2023-01-26T04:37:58;20.43;;;7.50;;
6269;SDS011;3168;51.684;6.954;2023-01-26T04:40:24;2.90;;;2.67;;
6269;SDS011;3168;51.684;6.954;2023-01-26T04:42:49;18.63;;;5.80;;
6269;SDS011;3168;51.684;6.954;2023-01-26T04:45:15;7.43;;;6.17;;
6269;SDS011;3168;51.684;6.954;2023-01-26T04:47:41;16.45;;;3.60;;
6269;SDS011;3168;51.684;6.954;2023-01-26T04:50:07;12.37;;;6.80;;
6269;SDS011;3168;51.684;6.954;2023-01-26T04:52:34;12.10;;;4.53;;
6269;SDS011;3168;51.684;6.954;2023-01-26T04:55:00;6.50;;;4.13;;
6269;SDS011;3168;51.684;6.954;2023-01-26T04:57:25;4.67;;;2.63;;
6269;SDS011;3168;51.684;6.954;2023-01-26T04:59:51;12.10;;;5.03;;
6269;SDS011;3168;51.684;6.954;2023-01-26T05:02:17;17.80;;;7.77;;
6269;SDS011;3168;51.684;6.954;2023-01-26T05:04:44;10.40;;;8.27;;
6269;SDS011;3168;51.684;6.954;2023-01-26T05:07:09;17.10;;;7.40;;
6269;SDS011;3168;51.684;6.954;2023-01-26T05:09:35;5.87;;;3.87;;
6269;SDS011;3168;51.684;6.954;2023-01-26T05:12:01;6.10;;;3.33;;
6269;SDS011;3168;51.684;6.954;2023-01-26T05:14:27;11.57;;;6.60;;
6269;SDS011;3168;51.684;6.954;2023-01-26T05:16:53;5.97;;;5.00;;
6269;SDS011;3168;51.684;6.954;2023-01-26T05:19:19;12.10;;;7.57;;
6269;SDS011;3168;51.684;6.954;2023-01-26T05:21:44;3.83;;;2.47;;
6269;SDS011;3168;51.684;6.954;2023-01-26T05:24:10;9.80;;;7.50;;
6269;SDS011;3168;51.684;6.954;2023-01-26T05:26:36;7.97;;;3.27;;
6269;SDS011;3168;51.684;6.954;2023-01-26T05:29:02;2.77;;;2.57;;
6269;SDS011;3168;51.684;6.954;2023-01-26T05:31:28;4.53;;;3.57;;
6269;SDS011;3168;51.684;6.954;2023-01-26T05:33:53;12.43;;;4.83;;
6269;SDS011;3168;51.684;6.954;2023-01-26T05:36:19;14.37;;;6.67;;
6269;SDS011;3168;51.684;6.954;2023-01-26T05:38:45;13.07;;;4.83;;
6269;SDS011;3168;51.684;6.954;2023-01-26T05:41:11;12.20;;;6.37;;
6269;SDS011;3168;51.684;6.954;2023-01-26T05:43:37;6.83;;;3.93;;
6269;SDS011;3168;51.684;6.954;2023-01-26T05:46:03;15.23;;;5.63;;
6269;SDS011;3168;51.684;6.954;2023-01-26T05:48:28;6.00;;;4.00;;
6269;SDS011;3168;51.684;6.954;2023-01-26T05:50:55;15.53;;;5.77;;
6269;SDS011;3168;51.684;6.954;2023-01-26T05:53:20;6.33;;;4.07;;
6269;SDS011;3168;51.684;6.954;2023-01-26T05:55:46;2.90;;;2.77;;
6269;SDS011;3168;51.684;6.954;2023-01-26T05:58:12;12.43;;;5.73;;
6269;SDS011;3168;51.684;6.954;2023-01-26T06:00:37;6.13;;;3.43;;
6269;SDS011;3168;51.684;6.954;2023-01-26T06:03:03;13.87;;;7.00;;
6269;SDS011;3168;51.684;6.954;2023-01-26T06:05:29;14.33;;;5.00;;
6269;SDS011;3168;51.684;6.954;2023-01-26T06:07:56;16.47;;;6.00;;
6269;SDS011;3168;51.684;6.954;2023-01-26T06:10:21;10.23;;;6.33;;
6269;SDS011;3168;51.684;6.954;2023-01-26T06:12:48;6.70;;;4.50;;
6269;SDS011;3168;51.684;6.954;2023-01-26T06:15:14;15.70;;;4.13;;
6269;SDS011;3168;51.684;6.954;2023-01-26T06:17:40;15.77;;;4.70;;
6269;SDS011;3168;51.684;6.954;2023-01-26T06:20:06;11.93;;;5.57;;
6269;SDS011;3168;51.684;6.954;2023-01-26T06:22:32;6.73;;;4.70;;
6269;SDS011;3168;51.684;6.954;2023-01-26T06:24:58;8.73;;;5.13;;
6269;SDS011;3168;51.684;6.954;2023-01-26T06:27:24;10.63;;;5.37;;
6269;SDS011;3168;51.684;6.954;2023-01-26T06:29:50;8.67;;;5.83;;
6269;SDS011;3168;51.684;6.954;2023-01-26T06:32:15;10.37;;;5.30;;
6269;SDS011;3168;51.684;6.954;2023-01-26T06:34:41;9.63;;;3.80;;
6269;SDS011;3168;51.684;6.954;2023-01-26T06:37:07;10.10;;;5.60;;
6269;SDS011;3168;51.684;6.954;2023-01-26T06:39:33;12.00;;;3.83;;
6269;SDS011;3168;51.684;6.954;2023-01-26T06:41:58;4.80;;;4.50;;
6269;SDS011;3168;51.684;6.954;2023-01-26T06:44:24;4.87;;;2.77;;
6269;SDS011;3168;51.684;6.954;2023-01-26T06:46:50;11.07;;;4.43;;
6269;SDS011;3168;51.684;6.954;2023-01-26T06:49:16;7.30;;;4.33;;
6269;SDS011;3168;51.684;6.954;2023-01-26T06:51:45;14.20;;;4.80;;
6269;SDS011;3168;51.684;6.954;2023-01-26T06:54:11;9.53;;;4.40;;
6269;SDS011;3168;51.684;6.954;2023-01-26T06:56:36;4.93;;;4.40;;
6269;SDS011;3168;51.684;6.954;2023-01-26T06:59:02;7.10;;;3.73;;
6269;SDS011;3168;51.684;6.954;2023-01-26T07:01:28;10.97;;;4.63;;
6269;SDS011;3168;51.684;6.954;2023-01-26T07:03:54;10.53;;;2.73;;
6269;SDS011;3168;51.684;6.954;2023-01-26T07:06:19;11.00;;;5.53;;
6269;SDS011;3168;51.684;6.954;2023-01-26T07:08:45;18.77;;;6.73;;
6269;SDS011;3168;51.684;6.954;2023-01-26T07:11:11;4.10;;;3.33;;
6269;SDS011;3168;51.684;6.954;2023-01-26T07:13:37;6.00;;;3.10;;
6269;SDS011;3168;51.684;6.954;2023-01-26T07:16:04;12.60;;;6.07;;
6269;SDS011;3168;51.684;6.954;2023-01-26T07:18:30;17.17;;;5.73;;
6269;SDS011;3168;51.684;6.954;2023-01-26T07:21:01;3.27;;;3.07;;
6269;SDS011;3168;51.684;6.954;2023-01-26T07:23:26;8.43;;;4.10;;
6269;SDS011;3168;51.684;6.954;2023-01-26T07:25:52;13.37;;;5.30;;
6269;SDS011;3168;51.684;6.954;2023-01-26T07:28:18;10.00;;;5.10;;
6269;SDS011;3168;51.684;6.954;2023-01-26T07:30:43;7.10;;;4.57;;
6269;SDS011;3168;51.684;6.954;2023-01-26T07:33:09;10.43;;;6.77;;
6269;SDS011;3168;51.684;6.954;2023-01-26T07:35:35;7.60;;;3.23;;
6269;SDS011;3168;51.684;6.954;2023-01-26T07:38:03;9.23;;;4.20;;
6269;SDS011;3168;51.684;6.954;2023-01-26T07:40:28;5.10;;;4.70;;
6269;SDS011;3168;51.684;6.954;2023-01-26T07:42:54;8.93;;;4.40;;
6269;SDS011;3168;51.684;6.954;2023-01-26T07:45:20;8.87;;;5.33;;
6269;SDS011;3168;51.684;6.954;2023-01-26T07:47:46;13.57;;;3.57;;
6269;SDS011;3168;51.684;6.954;2023-01-26T07:50:12;7.10;;;5.63;;
6269;SDS011;3168;51.684;6.954;2023-01-26T07:52:38;8.93;;;5.40;;
6269;SDS011;3168;51.684;6.954;2023-01-26T07:55:04;6.10;;;2.93;;
6269;SDS011;3168;51.684;6.954;2023-01-26T07:57:30;15.40;;;4.17;;
6269;SDS011;3168;51.684;6.954;2023-01-26T07:59:56;5.40;;;4.37;;
6269;SDS011;3168;51.684;6.954;2023-01-26T08:02:21;10.27;;;3.43;;
6269;SDS011;3168;51.684;6.954;2023-01-26T08:04:47;5.17;;;4.60;;
6269;SDS011;3168;51.684;6.954;2023-01-26T08:07:13;14.73;;;4.40;;
6269;SDS011;3168;51.684;6.954;2023-01-26T08:09:39;7.90;;;3.90;;
6269;SDS011;3168;51.684;6.954;2023-01-26T08:12:05;9.77;;;4.40;;
6269;SDS011;3168;51.684;6.954;2023-01-26T08:14:31;12.13;;;5.87;;
6269;SDS011;3168;51.684;6.954;2023-01-26T08:16:57;5.13;;;3.27;;
6269;SDS011;3168;51.684;6.954;2023-01-26T08:19:23;3.07;;;2.77;;
6269;SDS011;3168;51.684;6.954;2023-01-26T08:21:50;3.93;;;3.43;;
6269;SDS011;3168;51.684;6.954;2023-01-26T08:24:15;6.33;;;2.63;;
6269;SDS011;3168;51.684;6.954;2023-01-26T08:26:41;4.80;;;2.97;;
6269;SDS011;3168;51.684;6.954;2023-01-26T08:29:07;8.23;;;3.77;;
6269;SDS011;3168;51.684;6.954;2023-01-26T08:31:33;12.40;;;4.30;;
6269;SDS011;3168;51.684;6.954;2023-01-26T08:33:59;6.80;;;3.43;;
6269;SDS011;3168;51.684;6.954;2023-01-26T08:36:25;8.10;;;3.90;;
6269;SDS011;3168;51.684;6.954;2023-01-26T08:38:51;17.83;;;4.00;;
6269;SDS011;3168;51.684;6.954;2023-01-26T08:41:17;5.90;;;4.43;;
6269;SDS011;3168;51.684;6.954;2023-01-26T08:43:42;4.23;;;3.97;;
6269;SDS011;3168;51.684;6.954;2023-01-26T08:46:08;3.80;;;2.00;;
6269;SDS011;3168;51.684;6.954;2023-01-26T08:48:34;3.20;;;2.10;;
6269;SDS011;3168;51.684;6.954;2023-01-26T08:51:00;3.10;;;2.90;;
6269;SDS011;3168;51.684;6.954;2023-01-26T08:53:28;7.70;;;5.10;;
6269;SDS011;3168;51.684;6.954;2023-01-26T08:55:51;13.90;;;4.10;;
6269;SDS011;3168;51.684;6.954;2023-01-26T08:58:17;6.37;;;5.77;;
6269;SDS011;3168;51.684;6.954;2023-01-26T09:00:43;7.27;;;2.53;;
6269;SDS011;3168;51.684;6.954;2023-01-26T09:03:09;10.57;;;4.70;;
6269;SDS011;3168;51.684;6.954;2023-01-26T09:05:36;6.97;;;5.80;;
6269;SDS011;3168;51.684;6.954;2023-01-26T09:08:02;2.47;;;2.20;;
6269;SDS011;3168;51.684;6.954;2023-01-26T09:10:28;5.00;;;2.80;;
6269;SDS011;3168;51.684;6.954;2023-01-26T09:12:55;3.73;;;3.33;;
6269;SDS011;3168;51.684;6.954;2023-01-26T09:15:19;2.93;;;1.87;;
6269;SDS011;3168;51.684;6.954;2023-01-26T09:17:47;5.70;;;3.60;;
6269;SDS011;3168;51.684;6.954;2023-01-26T09:20:12;7.00;;;2.40;;
6269;SDS011;3168;51.684;6.954;2023-01-26T09:22:38;7.57;;;3.23;;
6269;SDS011;3168;51.684;6.954;2023-01-26T09:25:04;4.30;;;2.73;;
6269;SDS011;3168;51.684;6.954;2023-01-26T09:27:30;2.40;;;2.30;;
6269;SDS011;3168;51.684;6.954;2023-01-26T09:29:57;3.57;;;3.37;;
6269;SDS011;3168;51.684;6.954;2023-01-26T09:32:23;4.97;;;2.90;;
6269;SDS011;3168;51.684;6.954;2023-01-26T09:34:49;2.57;;;2.40;;
6269;SDS011;3168;51.684;6.954;2023-01-26T09:37:23;5.73;;;2.47;;
6269;SDS011;3168;51.684;6.954;2023-01-26T09:39:50;7.70;;;2.30;;
6269;SDS011;3168;51.684;6.954;2023-01-26T09:42:20;3.07;;;1.37;;
6269;SDS011;3168;51.684;6.954;2023-01-26T09:44:51;3.60;;;2.80;;
6269;SDS011;3168;51.684;6.954;2023-01-26T09:47:18;5.57;;;2.43;;
6269;SDS011;3168;51.684;6.954;2023-01-26T09:49:44;5.40;;;2.70;;
6269;SDS011;3168;51.684;6.954;2023-01-26T09:52:11;3.67;;;1.73;;
6269;SDS011;3168;51.684;6.954;2023-01-26T09:54:39;6.43;;;2.53;;
6269;SDS011;3168;51.684;6.954;2023-01-26T09:57:12;4.40;;;2.50;;
6269;SDS011;3168;51.684;6.954;2023-01-26T09:59:50;5.90;;;1.40;;
6269;SDS011;3168;51.684;6.954;2023-01-26T10:02:19;2.53;;;2.33;;
6269;SDS011;3168;51.684;6.954;2023-01-26T10:04:45;4.00;;;2.00;;
6269;SDS011;3168;51.684;6.954;2023-01-26T10:07:11;3.33;;;3.10;;
6269;SDS011;3168;51.684;6.954;2023-01-26T10:09:37;4.10;;;2.30;;
6269;SDS011;3168;51.684;6.954;2023-01-26T10:12:05;1.70;;;1.60;;
6269;SDS011;3168;51.684;6.954;2023-01-26T10:14:32;2.90;;;2.70;;
6269;SDS011;3168;51.684;6.954;2023-01-26T10:16:58;3.60;;;2.67;;
6269;SDS011;3168;51.684;6.954;2023-01-26T10:19:30;2.03;;;1.93;;
6269;SDS011;3168;51.684;6.954;2023-01-26T10:21:51;2.33;;;2.17;;
6269;SDS011;3168;51.684;6.954;2023-01-26T10:24:19;3.50;;;2.50;;
6269;SDS011;3168;51.684;6.954;2023-01-26T10:26:43;1.40;;;1.40;;
6269;SDS011;3168;51.684;6.954;2023-01-26T10:29:11;1.90;;;1.60;;
6269;SDS011;3168;51.684;6.954;2023-01-26T10:31:35;2.93;;;2.73;;
6269;SDS011;3168;51.684;6.954;2023-01-26T10:34:04;3.87;;;3.40;;
6269;SDS011;3168;51.684;6.954;2023-01-26T10:36:28;3.27;;;2.03;;
6269;SDS011;3168;51.684;6.954;2023-01-26T10:38:54;1.63;;;1.53;;
6269;SDS011;3168;51.684;6.954;2023-01-26T10:41:22;2.30;;;1.80;;
6269;SDS011;3168;51.684;6.954;2023-01-26T10:43:50;5.07;;;4.00;;
6269;SDS011;3168;51.684;6.954;2023-01-26T10:46:26;2.40;;;1.80;;
6269;SDS011;3168;51.684;6.954;2023-01-26T10:48:52;1.98;;;1.87;;
6269;SDS011;3168;51.684;6.954;2023-01-26T10:51:21;3.97;;;3.20;;
6269;SDS011;3168;51.684;6.954;2023-01-26T10:53:46;6.63;;;4.00;;
6269;SDS011;3168;51.684;6.954;2023-01-26T10:56:12;3.97;;;2.20;;
6269;SDS011;3168;51.684;6.954;2023-01-26T10:58:41;2.43;;;2.20;;
6269;SDS011;3168;51.684;6.954;2023-01-26T11:01:21;2.20;;;2.10;;
6269;SDS011;3168;51.684;6.954;2023-01-26T11:03:57;2.97;;;2.17;;
6269;SDS011;3168;51.684;6.954;2023-01-26T11:06:15;2.63;;;2.53;;
6269;SDS011;3168;51.684;6.954;2023-01-26T11:08:40;5.13;;;3.37;;
6269;SDS011;3168;51.684;6.954;2023-01-26T11:11:06;3.03;;;2.17;;
6269;SDS011;3168;51.684;6.954;2023-01-26T11:13:32;4.03;;;2.93;;
6269;SDS011;3168;51.684;6.954;2023-01-26T11:16:02;7.47;;;5.47;;
6269;SDS011;3168;51.684;6.954;2023-01-26T11:18:55;3.80;;;2.03;;
6269;SDS011;3168;51.684;6.954;2023-01-26T11:21:25;2.77;;;2.50;;
6269;SDS011;3168;51.684;6.954;2023-01-26T11:23:51;2.20;;;2.10;;
6269;SDS011;3168;51.684;6.954;2023-01-26T11:26:23;2.13;;;2.03;;
6269;SDS011;3168;51.684;6.954;2023-01-26T11:28:49;5.20;;;3.23;;
6269;SDS011;3168;51.684;6.954;2023-01-26T11:31:20;8.77;;;3.50;;
6269;SDS011;3168;51.684;6.954;2023-01-26T11:34:05;8.03;;;2.77;;
6269;SDS011;3168;51.684;6.954;2023-01-26T11:39:23;3.00;;;2.80;;
6269;SDS011;3168;51.684;6.954;2023-01-26T11:41:50;3.33;;;2.77;;
6269;SDS011;3168;51.684;6.954;2023-01-26T11:44:41;3.43;;;2.00;;
6269;SDS011;3168;51.684;6.954;2023-01-26T11:47:17;9.30;;;3.90;;
6269;SDS011;3168;51.684;6.954;2023-01-26T11:49:50;4.07;;;3.77;;
6269;SDS011;3168;51.684;6.954;2023-01-26T11:55:27;2.73;;;2.60;;
6269;SDS011;3168;51.684;6.954;2023-01-26T11:57:51;3.33;;;3.00;;
6269;SDS011;3168;51.684;6.954;2023-01-26T12:00:14;5.90;;;2.57;;
6269;SDS011;3168;51.684;6.954;2023-01-26T12:02:39;2.43;;;2.23;;
6269;SDS011;3168;51.684;6.954;2023-01-26T12:05:11;8.57;;;4.40;;
6269;SDS011;3168;51.684;6.954;2023-01-26T12:07:35;4.37;;;2.70;;
6269;SDS011;3168;51.684;6.954;2023-01-26T12:09:59;1.43;;;1.40;;
6269;SDS011;3168;51.684;6.954;2023-01-26T12:12:39;5.83;;;1.50;;
6269;SDS011;3168;51.684;6.954;2023-01-26T12:15:10;9.70;;;2.70;;
6269;SDS011;3168;51.684;6.954;2023-01-26T12:17:43;3.30;;;2.37;;
6269;SDS011;3168;51.684;6.954;2023-01-26T12:20:18;3.00;;;2.80;;
6269;SDS011;3168;51.684;6.954;2023-01-26T12:22:46;4.37;;;2.67;;
6269;SDS011;3168;51.684;6.954;2023-01-26T12:25:18;6.40;;;4.13;;
6269;SDS011;3168;51.684;6.954;2023-01-26T12:27:47;4.67;;;2.50;;
6269;SDS011;3168;51.684;6.954;2023-01-26T12:30:20;6.53;;;2.10;;
6269;SDS011;3168;51.684;6.954;2023-01-26T12:32:48;4.57;;;2.20;;
6269;SDS011;3168;51.684;6.954;2023-01-26T12:35:14;8.67;;;4.07;;
6269;SDS011;3168;51.684;6.954;2023-01-26T12:37:48;2.23;;;1.63;;
6269;SDS011;3168;51.684;6.954;2023-01-26T12:40:17;2.27;;;2.07;;
6269;SDS011;3168;51.684;6.954;2023-01-26T12:42:50;3.80;;;2.53;;
6269;SDS011;3168;51.684;6.954;2023-01-26T12:45:15;2.63;;;1.73;;
6269;SDS011;3168;51.684;6.954;2023-01-26T12:47:43;3.83;;;3.53;;
6269;SDS011;3168;51.684;6.954;2023-01-26T12:50:25;5.20;;;2.73;;
6269;SDS011;3168;51.684;6.954;2023-01-26T12:53:00;3.70;;;3.40;;
6269;SDS011;3168;51.684;6.954;2023-01-26T12:55:31;2.83;;;2.63;;
6269;SDS011;3168;51.684;6.954;2023-01-26T12:58:11;3.33;;;3.03;;
6269;SDS011;3168;51.684;6.954;2023-01-26T13:00:36;2.10;;;2.00;;
6269;SDS011;3168;51.684;6.954;2023-01-26T13:03:03;8.23;;;6.03;;
6269;SDS011;3168;51.684;6.954;2023-01-26T13:05:32;5.83;;;3.90;;
6269;SDS011;3168;51.684;6.954;2023-01-26T13:10:47;13.30;;;3.47;;
6269;SDS011;3168;51.684;6.954;2023-01-26T13:18:46;4.43;;;2.30;;
6269;SDS011;3168;51.684;6.954;2023-01-26T13:20:57;9.73;;;4.00;;
6269;SDS011;3168;51.684;6.954;2023-01-26T13:23:35;5.13;;;3.23;;
6269;SDS011;3168;51.684;6.954;2023-01-26T13:28:37;15.00;;;5.87;;
6269;SDS011;3168;51.684;6.954;2023-01-26T13:31:04;4.37;;;3.00;;
6269;SDS011;3168;51.684;6.954;2023-01-26T13:33:29;2.17;;;2.10;;
6269;SDS011;3168;51.684;6.954;2023-01-26T13:35:56;7.00;;;3.80;;
6269;SDS011;3168;51.684;6.954;2023-01-26T13:38:27;7.17;;;3.30;;
6269;SDS011;3168;51.684;6.954;2023-01-26T13:40:51;9.07;;;5.20;;
6269;SDS011;3168;51.684;6.954;2023-01-26T13:43:20;24.87;;;3.80;;
6269;SDS011;3168;51.684;6.954;2023-01-26T13:46:29;3.77;;;2.90;;
6269;SDS011;3168;51.684;6.954;2023-01-26T13:48:42;8.43;;;5.43;;
6269;SDS011;3168;51.684;6.954;2023-01-26T13:51:09;6.90;;;3.70;;
6269;SDS011;3168;51.684;6.954;2023-01-26T13:53:35;9.13;;;4.43;;
6269;SDS011;3168;51.684;6.954;2023-01-26T13:56:01;5.83;;;3.10;;
6269;SDS011;3168;51.684;6.954;2023-01-26T13:58:25;5.33;;;3.67;;
6269;SDS011;3168;51.684;6.954;2023-01-26T14:00:58;8.07;;;3.80;;
6269;SDS011;3168;51.684;6.954;2023-01-26T14:03:24;6.83;;;2.90;;
6269;SDS011;3168;51.684;6.954;2023-01-26T14:05:53;3.37;;;2.80;;
6269;SDS011;3168;51.684;6.954;2023-01-26T14:08:18;16.80;;;3.30;;
6269;SDS011;3168;51.684;6.954;2023-01-26T14:10:44;5.50;;;4.03;;
6269;SDS011;3168;51.684;6.954;2023-01-26T14:13:18;15.40;;;5.47;;
6269;SDS011;3168;51.684;6.954;2023-01-26T14:15:54;3.93;;;3.50;;
6269;SDS011;3168;51.684;6.954;2023-01-26T14:18:19;9.27;;;4.90;;
6269;SDS011;3168;51.684;6.954;2023-01-26T14:20:45;4.97;;;4.57;;
6269;SDS011;3168;51.684;6.954;2023-01-26T14:23:13;7.57;;;3.60;;
6269;SDS011;3168;51.684;6.954;2023-01-26T14:25:41;8.37;;;3.87;;
6269;SDS011;3168;51.684;6.954;2023-01-26T14:28:10;9.97;;;3.23;;
6269;SDS011;3168;51.684;6.954;2023-01-26T14:30:32;6.50;;;3.40;;
6269;SDS011;3168;51.684;6.954;2023-01-26T14:33:01;16.27;;;3.87;;
6269;SDS011;3168;51.684;6.954;2023-01-26T14:35:27;4.93;;;3.90;;
6269;SDS011;3168;51.684;6.954;2023-01-26T14:40:30;6.07;;;3.77;;
6269;SDS011;3168;51.684;6.954;2023-01-26T14:42:56;10.43;;;4.67;;
6269;SDS011;3168;51.684;6.954;2023-01-26T14:45:25;4.63;;;3.20;;
6269;SDS011;3168;51.684;6.954;2023-01-26T14:47:49;10.30;;;4.30;;
6269;SDS011;3168;51.684;6.954;2023-01-26T14:50:18;5.97;;;4.60;;
6269;SDS011;3168;51.684;6.954;2023-01-26T14:52:42;17.60;;;6.10;;
6269;SDS011;3168;51.684;6.954;2023-01-26T14:55:12;16.17;;;7.23;;
6269;SDS011;3168;51.684;6.954;2023-01-26T14:57:37;9.55;;;5.32;;
6269;SDS011;3168;51.684;6.954;2023-01-26T15:00:03;12.00;;;6.03;;
6269;SDS011;3168;51.684;6.954;2023-01-26T15:02:37;6.17;;;5.57;;
6269;SDS011;3168;51.684;6.954;2023-01-26T15:05:10;7.23;;;6.43;;
6269;SDS011;3168;51.684;6.954;2023-01-26T15:07:37;9.13;;;6.10;;
6269;SDS011;3168;51.684;6.954;2023-01-26T15:10:23;5.57;;;3.57;;
6269;SDS011;3168;51.684;6.954;2023-01-26T15:12:33;5.00;;;3.10;;
6269;SDS011;3168;51.684;6.954;2023-01-26T15:14:59;12.73;;;6.03;;
6269;SDS011;3168;51.684;6.954;2023-01-26T15:17:41;13.37;;;5.70;;
6269;SDS011;3168;51.684;6.954;2023-01-26T15:20:10;17.27;;;9.50;;
6269;SDS011;3168;51.684;6.954;2023-01-26T15:22:50;10.77;;;7.07;;
6269;SDS011;3168;51.684;6.954;2023-01-26T15:25:18;12.77;;;5.57;;
6269;SDS011;3168;51.684;6.954;2023-01-26T15:27:47;16.37;;;6.40;;
6269;SDS011;3168;51.684;6.954;2023-01-26T15:30:14;30.93;;;8.07;;
6269;SDS011;3168;51.684;6.954;2023-01-26T15:32:36;7.30;;;6.30;;